Time;durP1;ratioP1;P1;durP2;ratioP2;P2;SDS_P1;SDS_P2;PMS_P1;PMS_P2;Temp;Humidity;BMP_temperature;BMP_pressure;BME280_temperature;BME280_humidity;BME280_pressure;Samples;Min_cycle;Max_cycle;Signal;HPM_P1;HPM_P2
2022/05/06 00:00:00;;;;;;;;;;;13.70;99.90;14.00;100002.00;;;;343446;28;82448;-90
2022/05/06 00:00:13;;;;;;;;;;;13.70;99.90;13.90;100008.00;;;;342952;28;91782;-90
2022/05/06 00:00:25;;;;;;;;;;;13.70;99.90;13.90;99998.00;;;;344629;28;83345;-90
2022/05/06 00:00:37;;;;;;;;;;;13.70;99.90;14.00;100005.00;;;;342953;28;91869;-90
2022/05/06 00:00:49;;;;;;;;;;;13.70;99.90;14.00;100003.00;;;;344823;28;83367;-90
2022/05/06 00:01:01;;;;;;;;;;;13.70;99.90;14.00;100002.00;;;;345744;28;90034;-90
2022/05/06 00:01:12;;;;;;;;;;;13.70;99.90;13.90;100010.00;;;;342062;28;82403;-90
2022/05/06 00:01:24;;;;;;;;;;;13.70;99.90;13.90;100011.00;;;;341666;28;91767;-90
2022/05/06 00:01:37;;;;;;;;;;;13.70;99.90;13.90;100003.00;;;;342123;28;83283;-90
2022/05/06 00:01:50;;;;;;;;;;;13.70;99.90;13.90;99999.00;;;;342630;28;91588;-90
2022/05/06 00:02:04;;;;;;;;;;;13.70;99.90;13.90;100007.00;;;;343398;28;83294;-90
2022/05/06 00:02:15;;;;;;;;;;;13.70;99.90;14.00;100004.00;;;;342852;28;90434;-90
2022/05/06 00:02:27;;;;;;;;;;;13.70;99.90;13.90;100007.00;;;;341820;28;83856;-90
2022/05/06 00:02:40;;;;;;;;;;;13.70;99.90;13.90;100002.00;;;;344262;28;91462;-90
2022/05/06 00:02:52;;;;;;;;;;;13.70;99.90;13.80;99996.00;;;;344767;28;82470;-89
2022/05/06 00:03:04;;;;;;;;;;;13.60;99.90;13.80;100001.00;;;;342610;28;91801;-90
2022/05/06 00:03:15;;;;;;;;;;;13.70;99.90;13.80;100006.00;;;;343339;28;83334;-90
2022/05/06 00:03:27;;;;;;;;;;;13.60;99.90;13.90;99998.00;;;;346989;28;90377;-90
2022/05/06 00:03:39;;;;;;;;;;;13.60;99.90;13.80;100005.00;;;;345965;28;83376;-90
2022/05/06 00:03:51;;;;;;;;;;;13.60;99.90;13.90;100006.00;;;;345658;28;90194;-90
2022/05/06 00:04:04;;;;;;;;;;;13.60;99.90;13.90;100008.00;;;;343458;28;83106;-91
2022/05/06 00:04:16;;;;;;;;;;;13.60;99.90;14.00;100016.00;;;;344126;28;91429;-91
2022/05/06 00:04:28;;;;;;;;;;;13.60;99.90;14.00;100005.00;;;;344542;28;82562;-90
2022/05/06 00:04:41;;;;;;;;;;;13.60;99.90;13.90;100001.00;;;;341711;28;90281;-90
2022/05/06 00:04:53;;;;;;;;;;;13.70;99.90;14.00;100009.00;;;;343389;28;83352;-90
2022/05/06 00:05:05;;;;;;;;;;;13.60;99.90;13.90;100006.00;;;;344299;28;91649;-90
2022/05/06 00:05:17;;;;;;;;;;;13.60;99.90;13.90;100005.00;;;;344642;28;83491;-90
2022/05/06 00:05:30;;;;;;;;;;;13.60;99.90;14.00;100003.00;;;;344272;28;91321;-91
2022/05/06 00:05:42;;;;;;;;;;;13.70;99.90;14.00;100003.00;;;;342071;28;83330;-90
2022/05/06 00:05:54;;;;;;;;;;;13.70;99.90;13.90;100009.00;;;;344180;28;92249;-90
2022/05/06 00:06:06;;;;;;;;;;;13.70;99.90;14.00;100005.00;;;;344681;28;82283;-90
2022/05/06 00:06:17;;;;;;;;;;;13.70;99.90;13.90;100013.00;;;;342990;28;91348;-91
2022/05/06 00:06:30;;;;;;;;;;;13.70;99.90;13.80;100008.00;;;;341838;28;83556;-91
2022/05/06 00:06:42;;;;;;;;;;;13.70;99.90;13.80;100012.00;;;;342837;28;90220;-90
2022/05/06 00:06:54;;;;;;;;;;;13.70;99.90;13.80;100005.00;;;;341969;28;83326;-90
2022/05/06 00:07:07;;;;;;;;;;;13.60;99.90;13.90;100000.00;;;;345623;28;91613;-90
2022/05/06 00:07:19;;;;;;;;;;;13.60;99.90;13.90;100008.00;;;;343437;28;83472;-90
2022/05/06 00:07:30;;;;;;;;;;;13.60;99.90;13.90;100012.00;;;;342908;28;91875;-90
2022/05/06 00:07:42;;;;;;;;;;;13.60;99.90;13.90;100006.00;;;;343380;28;82515;-91
2022/05/06 00:07:54;;;;;;;;;;;13.60;99.90;13.80;100006.00;;;;341645;28;91223;-90
2022/05/06 00:08:06;;;;;;;;;;;13.60;99.90;13.80;100007.00;;;;344767;28;83258;-90
2022/05/06 00:08:18;;;;;;;;;;;13.60;99.90;13.80;99996.00;;;;344236;28;91013;-89
2022/05/06 00:08:30;;;;;;;;;;;13.60;99.90;13.70;100004.00;;;;345856;28;83411;-90
2022/05/06 00:08:42;;;;;;;;;;;13.60;99.90;13.80;100010.00;;;;345789;28;91564;-90
2022/05/06 00:08:53;;;;;;;;;;;13.60;99.90;13.80;100009.00;;;;344600;28;83386;-90
2022/05/06 00:09:05;;;;;;;;;;;13.60;99.90;13.80;100007.00;;;;346989;28;90281;-90
2022/05/06 00:09:17;;;;;;;;;;;13.60;99.90;13.80;100005.00;;;;344582;28;83520;-90
2022/05/06 00:09:29;;;;;;;;;;;13.60;99.90;13.80;99999.00;;;;342899;28;90613;-90
2022/05/06 00:09:42;;;;;;;;;;;13.60;99.90;13.80;100000.00;;;;346143;28;83296;-90
2022/05/06 00:09:54;;;;;;;;;;;13.60;99.90;13.80;100003.00;;;;344165;28;92129;-90
2022/05/06 00:10:07;;;;;;;;;;;13.50;99.90;13.80;99997.00;;;;341939;28;82571;-90
2022/05/06 00:10:19;;;;;;;;;;;13.50;99.90;13.80;100007.00;;;;345626;28;90421;-90
2022/05/06 00:10:31;;;;;;;;;;;13.60;99.90;13.80;99986.00;;;;344721;28;83496;-90
2022/05/06 00:10:42;;;;;;;;;;;13.60;99.90;13.80;100001.00;;;;341437;28;90696;-91
2022/05/06 00:10:54;;;;;;;;;;;13.60;99.90;13.80;99999.00;;;;343410;28;83494;-91
2022/05/06 00:11:06;;;;;;;;;;;13.60;99.90;13.80;100004.00;;;;344200;28;91634;-90
2022/05/06 00:11:18;;;;;;;;;;;13.50;99.90;13.80;100004.00;;;;344652;28;83469;-91
2022/05/06 00:11:30;;;;;;;;;;;13.60;99.90;13.80;100003.00;;;;345139;28;92262;-91
2022/05/06 00:11:41;;;;;;;;;;;13.60;99.90;13.80;100002.00;;;;344679;28;82376;-90
2022/05/06 00:11:53;;;;;;;;;;;13.60;99.90;13.80;100002.00;;;;341223;28;92810;-91
2022/05/06 00:12:06;;;;;;;;;;;13.50;99.90;13.70;100003.00;;;;342068;28;83365;-90
2022/05/06 00:12:19;;;;;;;;;;;13.50;99.90;13.70;100008.00;;;;344318;28;90477;-91
2022/05/06 00:12:31;;;;;;;;;;;13.50;99.90;13.70;100007.00;;;;344583;28;83431;-90
2022/05/06 00:12:43;;;;;;;;;;;13.50;99.90;13.70;100007.00;;;;344249;28;91230;-90
2022/05/06 00:12:55;;;;;;;;;;;13.50;99.90;13.70;100008.00;;;;346178;28;83326;-90
2022/05/06 00:13:07;;;;;;;;;;;13.50;99.90;13.80;100011.00;;;;341496;28;91690;-91
2022/05/06 00:13:19;;;;;;;;;;;13.50;99.90;13.80;100007.00;;;;343472;28;82446;-90
2022/05/06 00:13:31;;;;;;;;;;;13.50;99.90;13.80;99996.00;;;;341507;28;91672;-90
2022/05/06 00:13:42;;;;;;;;;;;13.50;99.90;13.80;100006.00;;;;343177;28;83359;-90
2022/05/06 00:13:54;;;;;;;;;;;13.50;99.90;13.80;100001.00;;;;344146;28;92311;-90
2022/05/06 00:14:06;;;;;;;;;;;13.50;99.90;13.80;99995.00;;;;343345;28;83373;-91
2022/05/06 00:14:18;;;;;;;;;;;13.50;99.90;13.80;99997.00;;;;344263;28;90583;-90
2022/05/06 00:14:30;;;;;;;;;;;13.50;99.90;13.80;100006.00;;;;341815;28;83497;-90
2022/05/06 00:14:42;;;;;;;;;;;13.50;99.90;13.70;100002.00;;;;344389;28;90148;-90
2022/05/06 00:14:53;;;;;;;;;;;13.50;99.90;13.80;100009.00;;;;344715;28;82258;-89
2022/05/06 00:15:09;;;;;;;;;;;13.50;99.90;13.80;100006.00;;;;342777;28;91774;-91
2022/05/06 00:15:21;;;;;;;;;;;13.50;99.90;13.80;100005.00;;;;342094;28;83277;-90
2022/05/06 00:15:34;;;;;;;;;;;13.50;99.90;13.70;99998.00;;;;344282;28;90417;-90
2022/05/06 00:15:46;;;;;;;;;;;13.50;99.90;13.70;100000.00;;;;341963;28;82529;-90
2022/05/06 00:15:58;;;;;;;;;;;13.50;99.90;13.70;100004.00;;;;342992;28;91244;-91
2022/05/06 00:16:10;;;;;;;;;;;13.50;99.90;13.70;99999.00;;;;341843;28;83495;-90
2022/05/06 00:16:23;;;;;;;;;;;13.50;99.90;13.70;100004.00;;;;337394;28;92209;-90
2022/05/06 00:16:34;;;;;;;;;;;13.50;99.90;13.70;99998.00;;;;346117;28;83509;-90
2022/05/06 00:16:46;;;;;;;;;;;13.50;99.90;13.70;100002.00;;;;344015;28;90479;-91
2022/05/06 00:16:58;;;;;;;;;;;13.50;99.90;13.70;100004.00;;;;343397;28;82426;-90
2022/05/06 00:17:10;;;;;;;;;;;13.50;99.90;13.70;100002.00;;;;345378;28;89875;-90
2022/05/06 00:17:22;;;;;;;;;;;13.40;99.90;13.60;100004.00;;;;346018;28;82554;-90
2022/05/06 00:17:34;;;;;;;;;;;13.40;99.90;13.60;99996.00;;;;343957;28;90428;-90
2022/05/06 00:17:45;;;;;;;;;;;13.40;99.90;13.60;99996.00;;;;345889;28;83430;-91
2022/05/06 00:17:57;;;;;;;;;;;13.40;99.90;13.70;99987.00;;;;344343;28;92617;-90
2022/05/06 00:18:09;;;;;;;;;;;13.40;99.90;13.70;99992.00;;;;346144;28;83378;-91
2022/05/06 00:18:21;;;;;;;;;;;13.40;99.90;13.70;99998.00;;;;344255;28;90697;-91
2022/05/06 00:18:33;;;;;;;;;;;13.40;99.90;13.70;100005.00;;;;344620;28;82518;-90
2022/05/06 00:18:45;;;;;;;;;;;13.40;99.90;13.70;99997.00;;;;342957;28;91529;-90
2022/05/06 00:18:57;;;;;;;;;;;13.40;99.90;13.70;100006.00;;;;343419;28;83366;-90
2022/05/06 00:19:08;;;;;;;;;;;13.40;99.90;13.70;99999.00;;;;342911;28;91889;-91
2022/05/06 00:19:21;;;;;;;;;;;13.40;99.90;13.70;100000.00;;;;343415;28;82495;-90
2022/05/06 00:19:33;;;;;;;;;;;13.40;99.90;13.60;99999.00;;;;344090;28;91329;-90
2022/05/06 00:19:45;;;;;;;;;;;13.40;99.90;13.70;99997.00;;;;347057;27;83414;-90
2022/05/06 00:19:57;;;;;;;;;;;13.40;99.90;13.60;99995.00;;;;345493;28;91306;-91
2022/05/06 00:20:10;;;;;;;;;;;13.40;99.90;13.60;100005.00;;;;344344;28;83390;-90
2022/05/06 00:20:22;;;;;;;;;;;13.40;99.90;13.60;100003.00;;;;342810;28;91441;-90
2022/05/06 00:20:33;;;;;;;;;;;13.40;99.90;13.60;100000.00;;;;345082;28;83495;-91
2022/05/06 00:20:46;;;;;;;;;;;13.40;99.90;13.60;99993.00;;;;346854;28;91447;-91
2022/05/06 00:20:58;;;;;;;;;;;13.40;99.90;13.60;100000.00;;;;343389;28;83428;-90
2022/05/06 00:21:10;;;;;;;;;;;13.40;99.90;13.60;99998.00;;;;344305;28;89108;-91
2022/05/06 00:21:21;;;;;;;;;;;13.40;99.90;13.70;99990.00;;;;346019;28;83387;-90
2022/05/06 00:21:33;;;;;;;;;;;13.40;99.90;13.60;100009.00;;;;345494;28;90746;-90
2022/05/06 00:21:45;;;;;;;;;;;13.40;99.90;13.60;99988.00;;;;343279;28;83461;-90
2022/05/06 00:21:57;;;;;;;;;;;13.40;99.90;13.60;99995.00;;;;344286;28;91843;-91
2022/05/06 00:22:10;;;;;;;;;;;13.40;99.90;13.60;99996.00;;;;343250;28;83445;-90
2022/05/06 00:22:22;;;;;;;;;;;13.40;99.90;13.60;100001.00;;;;342854;28;91685;-91
2022/05/06 00:22:33;;;;;;;;;;;13.40;99.90;13.60;100003.00;;;;343312;28;82249;-90
2022/05/06 00:22:45;;;;;;;;;;;13.40;99.90;13.60;100000.00;;;;342878;28;92161;-90
2022/05/06 00:22:57;;;;;;;;;;;13.40;99.90;13.60;99998.00;;;;344853;28;82483;-90
2022/05/06 00:23:09;;;;;;;;;;;13.40;99.90;13.60;99994.00;;;;345667;28;90968;-91
2022/05/06 00:23:21;;;;;;;;;;;13.40;99.90;13.60;100000.00;;;;343478;28;82462;-90
2022/05/06 00:23:33;;;;;;;;;;;13.40;99.90;13.50;99998.00;;;;343047;28;91436;-90
2022/05/06 00:23:44;;;;;;;;;;;13.40;99.90;13.60;99998.00;;;;343380;28;83349;-90
2022/05/06 00:23:56;;;;;;;;;;;13.30;99.90;13.60;99999.00;;;;340082;28;93561;-90
2022/05/06 00:24:11;;;;;;;;;;;13.30;99.90;13.60;100001.00;;;;343412;28;83403;-91
2022/05/06 00:24:23;;;;;;;;;;;13.40;99.90;13.60;99994.00;;;;342850;28;90652;-91
2022/05/06 00:24:34;;;;;;;;;;;13.40;99.90;13.60;99997.00;;;;343426;28;83279;-90
2022/05/06 00:24:46;;;;;;;;;;;13.30;99.90;13.60;100000.00;;;;342943;28;92392;-90
2022/05/06 00:24:58;;;;;;;;;;;13.30;99.90;13.60;100001.00;;;;343365;28;83281;-91
2022/05/06 00:25:10;;;;;;;;;;;13.40;99.90;13.60;100002.00;;;;344212;28;91466;-90
2022/05/06 00:25:22;;;;;;;;;;;13.30;99.90;13.60;99992.00;;;;344722;28;83274;-91
2022/05/06 00:25:33;;;;;;;;;;;13.30;99.90;13.60;99994.00;;;;342880;28;91539;-90
2022/05/06 00:25:45;;;;;;;;;;;13.30;99.90;13.60;99998.00;;;;343354;28;82565;-91
2022/05/06 00:25:57;;;;;;;;;;;13.30;99.90;13.60;99996.00;;;;345663;28;91197;-90
2022/05/06 00:26:09;;;;;;;;;;;13.30;99.90;13.60;99992.00;;;;346003;28;83216;-90
2022/05/06 00:26:21;;;;;;;;;;;13.30;99.90;13.60;99994.00;;;;345728;28;91394;-90
2022/05/06 00:26:32;;;;;;;;;;;13.30;99.90;13.60;99993.00;;;;345223;28;83279;-90
2022/05/06 00:26:44;;;;;;;;;;;13.30;99.90;13.60;100002.00;;;;342781;28;91552;-91
2022/05/06 00:26:57;;;;;;;;;;;13.30;99.90;13.60;99991.00;;;;339286;28;83293;-90
2022/05/06 00:27:09;;;;;;;;;;;13.30;99.90;13.60;100002.00;;;;344244;28;91621;-91
2022/05/06 00:27:21;;;;;;;;;;;13.30;99.90;13.60;100003.00;;;;344795;28;83297;-91
2022/05/06 00:27:33;;;;;;;;;;;13.30;99.90;13.50;99995.00;;;;340106;28;91538;-91
2022/05/06 00:27:44;;;;;;;;;;;13.30;99.90;13.60;99991.00;;;;341864;28;83417;-91
2022/05/06 00:27:56;;;;;;;;;;;13.30;99.90;13.60;99994.00;;;;342929;28;92700;-90
2022/05/06 00:28:08;;;;;;;;;;;13.30;99.90;13.60;99999.00;;;;343358;28;83381;-91
2022/05/06 00:28:21;;;;;;;;;;;13.30;99.90;13.60;99997.00;;;;341594;28;90576;-91
2022/05/06 00:28:33;;;;;;;;;;;13.30;99.90;13.60;99995.00;;;;345974;28;83456;-90
2022/05/06 00:28:45;;;;;;;;;;;13.30;99.90;13.50;99996.00;;;;345492;28;90706;-90
2022/05/06 00:28:57;;;;;;;;;;;13.30;99.90;13.50;99991.00;;;;340711;28;83426;-91
2022/05/06 00:29:09;;;;;;;;;;;13.30;99.90;13.50;99998.00;;;;341416;28;91984;-90
2022/05/06 00:29:21;;;;;;;;;;;13.30;99.90;13.50;99998.00;;;;343474;28;83348;-90
2022/05/06 00:29:35;;;;;;;;;;;13.30;99.90;13.50;100003.00;;;;344708;28;92055;-90
2022/05/06 00:29:46;;;;;;;;;;;13.30;99.90;13.60;100004.00;;;;346056;28;82507;-90
2022/05/06 00:29:58;;;;;;;;;;;13.30;99.90;13.50;99992.00;;;;344259;28;91625;-90
2022/05/06 00:30:11;;;;;;;;;;;13.30;99.90;13.50;99995.00;;;;341916;28;83439;-90
2022/05/06 00:30:23;;;;;;;;;;;13.30;99.90;13.50;99992.00;;;;338712;28;91430;-91
2022/05/06 00:30:34;;;;;;;;;;;13.30;99.90;13.40;99990.00;;;;344662;28;83522;-90
2022/05/06 00:30:46;;;;;;;;;;;13.30;99.90;13.40;99989.00;;;;343016;28;88909;-90
2022/05/06 00:31:00;;;;;;;;;;;13.20;99.90;13.50;99993.00;;;;344768;28;83401;-91
2022/05/06 00:31:12;;;;;;;;;;;13.20;99.90;13.50;99991.00;;;;345320;28;91901;-90
2022/05/06 00:31:24;;;;;;;;;;;13.20;99.90;13.50;100000.00;;;;345984;28;83346;-90
2022/05/06 00:31:36;;;;;;;;;;;13.20;99.90;13.50;100005.00;;;;344083;28;90577;-90
2022/05/06 00:31:48;;;;;;;;;;;13.20;99.90;13.40;99996.00;;;;341875;28;83459;-91
2022/05/06 00:32:01;;;;;;;;;;;13.20;99.90;13.40;99984.00;;;;340199;28;92380;-90
2022/05/06 00:32:13;;;;;;;;;;;13.20;99.90;13.40;99996.00;;;;343292;28;83475;-90
2022/05/06 00:32:25;;;;;;;;;;;13.20;99.90;13.40;99998.00;;;;342982;28;89844;-90
2022/05/06 00:32:37;;;;;;;;;;;13.20;99.90;13.40;99996.00;;;;344596;28;83624;-90
2022/05/06 00:32:48;;;;;;;;;;;13.20;99.90;13.40;99986.00;;;;342933;28;90509;-90
2022/05/06 00:33:00;;;;;;;;;;;13.20;99.90;13.40;99993.00;;;;340551;28;83346;-90
2022/05/06 00:33:13;;;;;;;;;;;13.20;99.90;13.40;99998.00;;;;344335;28;91337;-90
2022/05/06 00:33:26;;;;;;;;;;;13.20;99.90;13.40;99988.00;;;;344745;28;82519;-90
2022/05/06 00:33:37;;;;;;;;;;;13.20;99.90;13.40;99990.00;;;;342947;28;90738;-90
2022/05/06 00:33:49;;;;;;;;;;;13.20;99.90;13.40;99995.00;;;;344655;28;83409;-90
2022/05/06 00:34:01;;;;;;;;;;;13.20;99.90;13.40;99994.00;;;;341362;28;91828;-90
2022/05/06 00:34:13;;;;;;;;;;;13.20;99.90;13.40;99995.00;;;;343287;28;83374;-90
2022/05/06 00:34:24;;;;;;;;;;;13.20;99.90;13.40;99997.00;;;;342895;28;91877;-90
2022/05/06 00:34:36;;;;;;;;;;;13.20;99.90;13.40;99991.00;;;;344692;28;82573;-90
2022/05/06 00:34:48;;;;;;;;;;;13.20;99.90;13.40;99995.00;;;;342944;28;91765;-90
2022/05/06 00:35:00;;;;;;;;;;;13.20;99.90;13.40;99987.00;;;;346102;28;83379;-90
2022/05/06 00:35:12;;;;;;;;;;;13.20;99.90;13.40;99993.00;;;;342980;28;87928;-90
2022/05/06 00:35:24;;;;;;;;;;;13.20;99.90;13.40;99989.00;;;;345899;28;83271;-91
2022/05/06 00:35:39;;;;;;;;;;;13.20;99.90;13.50;99998.00;;;;343136;28;89603;-91
2022/05/06 00:35:54;;;;;;;;;;;13.20;99.90;13.50;99993.00;;;;344587;28;83434;-90
2022/05/06 00:36:06;;;;;;;;;;;13.20;99.90;13.40;99988.00;;;;345433;28;92506;-90
2022/05/06 00:36:17;;;;;;;;;;;13.20;99.90;13.40;99993.00;;;;341955;28;83386;-90
2022/05/06 00:36:29;;;;;;;;;;;13.20;99.90;13.30;99996.00;;;;344118;28;91846;-90
2022/05/06 00:36:41;;;;;;;;;;;13.20;99.90;13.30;99991.00;;;;344638;28;83434;-90
2022/05/06 00:36:55;;;;;;;;;;;13.10;99.90;13.30;99998.00;;;;341384;28;90449;-89
2022/05/06 00:37:06;;;;;;;;;;;13.10;99.90;13.40;99996.00;;;;341879;28;83445;-90
2022/05/06 00:37:18;;;;;;;;;;;13.10;99.90;13.40;99995.00;;;;342949;28;90960;-91
2022/05/06 00:37:30;;;;;;;;;;;13.10;99.90;13.40;99993.00;;;;344757;28;83133;-90
2022/05/06 00:37:42;;;;;;;;;;;13.10;99.90;13.40;99990.00;;;;342669;28;91997;-91
2022/05/06 00:37:54;;;;;;;;;;;13.10;99.90;13.40;99986.00;;;;343224;28;82406;-90
2022/05/06 00:38:06;;;;;;;;;;;13.10;99.90;13.40;99988.00;;;;342812;28;92401;-90
2022/05/06 00:38:17;;;;;;;;;;;13.10;99.90;13.30;99993.00;;;;343652;28;82486;-91
2022/05/06 00:38:29;;;;;;;;;;;13.10;99.90;13.30;100000.00;;;;343821;28;90536;-90
2022/05/06 00:38:44;;;;;;;;;;;13.10;99.90;13.40;99994.00;;;;343554;28;83505;-90
2022/05/06 00:38:56;;;;;;;;;;;13.10;99.90;13.40;99995.00;;;;344508;28;90666;-90
2022/05/06 00:39:08;;;;;;;;;;;13.10;99.90;13.40;99986.00;;;;346375;28;82607;-91
2022/05/06 00:39:20;;;;;;;;;;;13.10;99.90;13.40;99987.00;;;;341907;28;90209;-90
2022/05/06 00:39:32;;;;;;;;;;;13.10;99.90;13.40;99983.00;;;;342212;28;83469;-90
2022/05/06 00:39:43;;;;;;;;;;;13.10;99.90;13.40;99991.00;;;;344451;28;91579;-90
2022/05/06 00:39:55;;;;;;;;;;;13.10;99.90;13.30;99990.00;;;;343386;28;83418;-91
2022/05/06 00:40:08;;;;;;;;;;;13.10;99.90;13.40;99992.00;;;;341605;28;91982;-91
2022/05/06 00:40:20;;;;;;;;;;;13.10;99.90;13.40;99989.00;;;;342011;28;83368;-90
2022/05/06 00:40:32;;;;;;;;;;;13.10;99.90;13.30;99998.00;;;;341490;28;90877;-90
2022/05/06 00:40:43;;;;;;;;;;;13.10;99.90;13.40;99988.00;;;;340871;28;82572;-90
2022/05/06 00:40:55;;;;;;;;;;;13.10;99.90;13.40;99985.00;;;;345857;28;91784;-90
2022/05/06 00:41:07;;;;;;;;;;;13.10;99.90;13.30;99995.00;;;;344884;28;83473;-91
2022/05/06 00:41:19;;;;;;;;;;;13.10;99.90;13.30;99992.00;;;;344612;28;90271;-90
2022/05/06 00:41:34;;;;;;;;;;;13.10;99.90;13.30;99984.00;;;;341944;28;83375;-90
2022/05/06 00:41:46;;;;;;;;;;;13.10;99.90;13.30;99984.00;;;;341975;28;90375;-91
2022/05/06 00:41:58;;;;;;;;;;;13.10;99.90;13.40;99986.00;;;;346169;28;83513;-90
2022/05/06 00:42:10;;;;;;;;;;;13.10;99.90;13.40;99991.00;;;;341835;28;92240;-90
2022/05/06 00:42:22;;;;;;;;;;;13.10;99.90;13.40;99989.00;;;;339486;28;83448;-90
2022/05/06 00:42:33;;;;;;;;;;;13.10;99.90;13.40;99985.00;;;;340284;28;90089;-90
2022/05/06 00:42:45;;;;;;;;;;;13.10;99.90;13.40;99982.00;;;;343211;28;83454;-90
2022/05/06 00:42:57;;;;;;;;;;;13.10;99.90;13.40;99984.00;;;;341692;28;91366;-91
2022/05/06 00:43:09;;;;;;;;;;;13.10;99.90;13.30;99993.00;;;;344885;28;83433;-90
2022/05/06 00:43:21;;;;;;;;;;;13.10;99.90;13.30;99985.00;;;;345986;28;90325;-91
2022/05/06 00:43:33;;;;;;;;;;;13.10;99.90;13.30;99990.00;;;;345075;28;83333;-90
2022/05/06 00:43:46;;;;;;;;;;;13.10;99.90;13.30;99993.00;;;;343296;28;90606;-90
2022/05/06 00:43:57;;;;;;;;;;;13.10;99.90;13.30;99990.00;;;;343497;28;83268;-90
2022/05/06 00:44:09;;;;;;;;;;;13.10;99.90;13.20;99996.00;;;;344243;28;93065;-91
2022/05/06 00:44:22;;;;;;;;;;;13.10;99.90;13.30;99988.00;;;;343313;28;83392;-91
2022/05/06 00:44:34;;;;;;;;;;;13.10;99.90;13.20;99989.00;;;;343422;28;92221;-90
2022/05/06 00:44:46;;;;;;;;;;;13.00;99.90;13.30;99982.00;;;;344675;28;83476;-91
2022/05/06 00:44:58;;;;;;;;;;;13.00;99.90;13.30;99990.00;;;;341569;28;90565;-91
2022/05/06 00:45:10;;;;;;;;;;;13.00;99.90;13.30;99983.00;;;;344580;28;83449;-90
2022/05/06 00:45:22;;;;;;;;;;;13.10;99.90;13.30;99990.00;;;;344257;28;90161;-90
2022/05/06 00:45:39;;;;;;;;;;;13.00;99.90;13.30;99989.00;;;;344700;28;83299;-91
2022/05/06 00:45:54;;;;;;;;;;;13.00;99.90;13.30;99981.00;;;;344318;28;92042;-91
2022/05/06 00:46:14;;;;;;;;;;;13.00;99.90;13.20;99984.00;;;;340667;28;83487;-91
2022/05/06 00:46:26;;;;;;;;;;;13.00;99.90;13.20;99993.00;;;;342783;28;93203;-90
2022/05/06 00:46:38;;;;;;;;;;;13.00;99.90;13.30;99983.00;;;;344594;28;83534;-90
2022/05/06 00:46:52;;;;;;;;;;;13.00;99.90;13.20;99986.00;;;;342715;28;90100;-90
2022/05/06 00:47:04;;;;;;;;;;;13.00;99.90;13.20;99975.00;;;;344663;28;83354;-90
2022/05/06 00:47:20;;;;;;;;;;;13.00;99.90;13.20;99979.00;;;;342978;28;90746;-91
2022/05/06 00:47:33;;;;;;;;;;;13.00;99.90;13.20;99984.00;;;;342521;28;83329;-90
2022/05/06 00:47:45;;;;;;;;;;;13.00;99.90;13.20;99988.00;;;;346908;28;91583;-90
2022/05/06 00:47:57;;;;;;;;;;;13.00;99.90;13.20;99983.00;;;;346083;28;82215;-90
2022/05/06 00:48:09;;;;;;;;;;;13.00;99.90;13.20;99990.00;;;;347081;27;89137;-91
2022/05/06 00:48:23;;;;;;;;;;;13.00;99.90;13.10;99990.00;;;;344720;28;83312;-90
2022/05/06 00:48:35;;;;;;;;;;;13.00;99.90;13.10;99987.00;;;;344117;28;92386;-91
2022/05/06 00:48:47;;;;;;;;;;;12.90;99.90;13.20;99989.00;;;;343224;28;83824;-90
2022/05/06 00:48:59;;;;;;;;;;;12.90;99.90;13.20;99990.00;;;;344236;28;91375;-90
2022/05/06 00:49:12;;;;;;;;;;;13.00;99.90;13.20;99980.00;;;;341864;28;82318;-90
2022/05/06 00:49:23;;;;;;;;;;;13.00;99.90;13.20;99977.00;;;;340266;28;91736;-91
2022/05/06 00:49:35;;;;;;;;;;;12.90;99.90;13.20;99976.00;;;;344531;28;83439;-91
2022/05/06 00:49:47;;;;;;;;;;;12.90;99.90;13.20;99992.00;;;;344096;28;91480;-90
2022/05/06 00:50:00;;;;;;;;;;;12.90;99.90;13.30;99985.00;;;;346057;28;82414;-91
2022/05/06 00:50:12;;;;;;;;;;;12.90;99.90;13.30;99996.00;;;;342720;28;89283;-90
2022/05/06 00:50:24;;;;;;;;;;;12.90;99.90;13.20;99988.00;;;;343381;28;83309;-90
2022/05/06 00:50:37;;;;;;;;;;;12.90;99.90;13.20;99986.00;;;;346511;28;92853;-91
2022/05/06 00:50:51;;;;;;;;;;;12.90;99.90;13.30;99991.00;;;;346068;28;82290;-90
2022/05/06 00:51:03;;;;;;;;;;;12.90;99.90;13.20;99984.00;;;;345627;28;91617;-90
2022/05/06 00:51:15;;;;;;;;;;;12.90;99.90;13.20;99981.00;;;;344605;28;83496;-91
2022/05/06 00:51:26;;;;;;;;;;;12.90;99.90;13.20;99981.00;;;;344130;28;91522;-90
2022/05/06 00:51:39;;;;;;;;;;;12.90;99.90;13.20;99983.00;;;;344731;28;82525;-91
2022/05/06 00:51:51;;;;;;;;;;;12.90;99.90;13.20;99994.00;;;;342659;28;91382;-90
2022/05/06 00:52:04;;;;;;;;;;;12.90;99.90;13.20;99985.00;;;;346029;28;83415;-90
2022/05/06 00:52:16;;;;;;;;;;;12.90;99.90;13.10;99991.00;;;;344301;28;91222;-90
2022/05/06 00:52:28;;;;;;;;;;;12.90;99.90;13.10;99986.00;;;;340557;28;83655;-92
2022/05/06 00:52:40;;;;;;;;;;;12.90;99.90;13.20;99987.00;;;;344180;28;91125;-90
2022/05/06 00:52:52;;;;;;;;;;;12.90;99.90;13.20;99987.00;;;;347403;28;82457;-91
2022/05/06 00:53:06;;;;;;;;;;;12.90;99.90;13.20;99985.00;;;;344207;28;91506;-90
2022/05/06 00:53:18;;;;;;;;;;;12.90;99.90;13.20;99996.00;;;;344672;28;83544;-90
2022/05/06 00:53:31;;;;;;;;;;;12.90;99.90;13.20;99986.00;;;;344371;28;91453;-90
2022/05/06 00:53:43;;;;;;;;;;;12.90;99.90;13.10;99978.00;;;;343311;28;83293;-90
2022/05/06 00:53:55;;;;;;;;;;;12.90;99.90;13.10;99989.00;;;;345663;28;91579;-90
2022/05/06 00:54:07;;;;;;;;;;;12.90;99.90;13.20;99985.00;;;;344608;28;83418;-90
2022/05/06 00:54:21;;;;;;;;;;;12.90;99.90;13.20;99985.00;;;;341564;28;91421;-90
2022/05/06 00:54:34;;;;;;;;;;;12.90;99.90;13.20;99988.00;;;;344702;28;84004;-90
2022/05/06 00:54:46;;;;;;;;;;;12.90;99.90;13.20;99981.00;;;;347028;28;92643;-90
2022/05/06 00:54:57;;;;;;;;;;;12.90;99.90;13.10;99989.00;;;;343304;28;83356;-90
2022/05/06 00:55:09;;;;;;;;;;;12.90;99.90;13.10;99988.00;;;;345620;28;91750;-90
2022/05/06 00:55:21;;;;;;;;;;;12.90;99.90;13.20;99981.00;;;;344761;28;83429;-90
2022/05/06 00:55:34;;;;;;;;;;;12.90;99.90;13.10;99981.00;;;;341603;28;91782;-90
2022/05/06 00:55:46;;;;;;;;;;;12.90;99.90;13.10;99977.00;;;;343314;28;83255;-90
2022/05/06 00:55:58;;;;;;;;;;;12.90;99.90;13.20;99981.00;;;;342928;28;91423;-91
2022/05/06 00:56:11;;;;;;;;;;;12.90;99.90;13.20;99978.00;;;;346014;28;83738;-90
2022/05/06 00:56:24;;;;;;;;;;;12.90;99.90;13.20;99976.00;;;;341567;28;91798;-90
2022/05/06 00:56:36;;;;;;;;;;;12.90;99.90;13.20;99984.00;;;;345721;28;83476;-91
2022/05/06 00:56:48;;;;;;;;;;;12.90;99.90;13.20;99982.00;;;;346918;28;92679;-90
2022/05/06 00:57:00;;;;;;;;;;;12.90;99.90;13.20;99982.00;;;;344643;28;83339;-90
2022/05/06 00:57:12;;;;;;;;;;;12.90;99.90;13.20;99978.00;;;;344011;28;91018;-91
2022/05/06 00:57:24;;;;;;;;;;;12.90;99.90;13.20;99983.00;;;;347400;28;83390;-90
2022/05/06 00:57:36;;;;;;;;;;;12.90;99.90;13.20;99986.00;;;;344261;28;91437;-90
2022/05/06 00:57:48;;;;;;;;;;;12.90;99.90;13.20;99986.00;;;;343239;28;83510;-90
2022/05/06 00:57:59;;;;;;;;;;;12.90;99.90;13.20;99982.00;;;;344140;28;90489;-90
2022/05/06 00:58:11;;;;;;;;;;;12.90;99.90;13.20;99989.00;;;;341968;28;83566;-90
2022/05/06 00:58:29;;;;;;;;;;;12.90;99.90;13.20;99980.00;;;;342974;28;90408;-91
2022/05/06 00:58:42;;;;;;;;;;;12.90;99.90;13.20;99977.00;;;;337822;28;83338;-90
2022/05/06 00:58:54;;;;;;;;;;;12.90;99.90;13.20;99989.00;;;;338681;28;89607;-90
2022/05/06 00:59:05;;;;;;;;;;;12.90;99.90;13.20;99988.00;;;;345987;28;83386;-91
2022/05/06 00:59:17;;;;;;;;;;;12.90;99.90;13.20;99983.00;;;;340080;28;90513;-90
2022/05/06 00:59:29;;;;;;;;;;;12.90;99.90;13.20;99986.00;;;;344606;28;83458;-90
2022/05/06 01:00:18;;;;;;;;;;;12.90;99.90;13.10;99989.00;;;;341769;28;83510;-90
2022/05/06 01:00:29;;;;;;;;;;;12.90;99.90;13.20;99978.00;;;;344195;28;90761;-90
2022/05/06 01:00:41;;;;;;;;;;;12.90;99.90;13.10;99982.00;;;;347385;28;82329;-91